Time;durP1;ratioP1;P1;durP2;ratioP2;P2;SDS_P1;SDS_P2;PMS_P1;PMS_P2;Temp;Humidity;BMP_temperature;BMP_pressure;BME280_temperature;BME280_humidity;BME280_pressure;Samples;Min_cycle;Max_cycle;Signal;HPM_P1;HPM_P2
2022/03/23 00:01:00;;;;;;;;;;;;;;;0.98;67.07;102484.16;1776238;81;20219;-64
2022/03/23 00:04:08;;;;;;;;;;;;;;;0.93;67.19;102477.61;1776187;81;20179;-64
2022/03/23 00:07:15;;;;;;;;;;;;;;;0.92;67.36;102482.58;1776050;80;20238;-63
2022/03/23 00:10:23;;;;;;;;;;;;;;;0.90;67.39;102476.39;1776033;81;20187;-63
2022/03/23 00:13:28;;;;;;;;;;;;;;;0.85;67.36;102474.36;1775968;81;20207;-64
2022/03/23 00:16:34;;;;;;;;;;;;;;;0.77;67.40;102470.20;1774233;80;20223;-64
2022/03/23 00:19:40;;;;;;;;;;;;;;;0.71;67.60;102466.42;1776028;79;20184;-63
2022/03/23 00:22:47;;;;;;;;;;;;;;;0.68;67.98;102471.94;1776064;80;20235;-63
2022/03/23 00:25:52;;;;;;;;;;;;;;;0.69;68.33;102475.92;1776168;81;20219;-63
2022/03/23 00:28:59;;;;;;;;;;;;;;;0.69;68.48;102478.61;1775982;81;20235;-62
2022/03/23 00:32:03;;;;;;;;;;;;;;;0.73;68.82;102472.63;1775963;81;20516;-64
2022/03/23 00:35:10;;;;;;;;;;;;;;;0.76;68.95;102469.32;1776229;81;20252;-64
2022/03/23 00:38:18;;;;;;;;;;;;;;;0.75;68.76;102464.88;1760184;81;20529;-63
2022/03/23 00:41:28;;;;;;;;;;;;;;;0.69;68.59;102462.44;1776182;81;20191;-63
2022/03/23 00:44:33;;;;;;;;;;;;;;;0.62;68.45;102459.58;1776131;81;20263;-63
2022/03/23 00:47:41;;;;;;;;;;;;;;;0.58;68.50;102462.45;1775624;81;20579;-63
2022/03/23 00:50:46;;;;;;;;;;;;;;;0.52;68.82;102458.21;1776090;81;20281;-63
2022/03/23 00:53:54;;;;;;;;;;;;;;;0.50;69.05;102452.00;1759316;81;20187;-64
2022/03/23 00:56:58;;;;;;;;;;;;;;;0.48;69.27;102448.94;1758174;81;20196;-64
2022/03/23 01:00:06;;;;;;;;;;;;;;;0.48;69.26;102452.52;1776084;81;20188;-64
2022/03/23 01:03:11;;;;;;;;;;;;;;;0.44;69.16;102447.32;1776041;80;20192;-64
2022/03/23 01:06:18;;;;;;;;;;;;;;;0.43;69.55;102445.58;1775837;81;20179;-63
2022/03/23 01:09:23;;;;;;;;;;;;;;;0.46;69.68;102442.27;1776054;81;20227;-63
2022/03/23 01:12:29;;;;;;;;;;;;;;;0.45;69.54;102443.22;1775956;81;20243;-63
2022/03/23 01:15:34;;;;;;;;;;;;;;;0.45;69.80;102441.87;1776051;81;20531;-63
2022/03/23 01:18:39;;;;;;;;;;;;;;;0.45;69.93;102444.56;1770344;80;20211;-63
2022/03/23 01:21:45;;;;;;;;;;;;;;;0.40;70.19;102438.48;1771118;81;20191;-64
2022/03/23 01:24:51;;;;;;;;;;;;;;;0.43;70.45;102430.27;1770921;81;20215;-63
2022/03/23 01:27:57;;;;;;;;;;;;;;;0.44;70.28;102428.47;1770925;81;20203;-63
2022/03/23 01:31:02;;;;;;;;;;;;;;;0.38;70.08;102426.02;1770762;81;20180;-63
2022/03/23 01:34:09;;;;;;;;;;;;;;;0.34;70.16;102427.95;1770277;81;20212;-64
2022/03/23 01:37:18;;;;;;;;;;;;;;;0.31;70.42;102417.77;1770423;81;20220;-64
2022/03/23 01:40:18;;;;;;;;;;;;;;;0.30;70.43;102415.56;1770507;81;20247;-63
2022/03/23 01:43:25;;;;;;;;;;;;;;;0.29;70.48;102409.75;1770478;81;20227;-65
2022/03/23 01:46:32;;;;;;;;;;;;;;;0.31;70.33;102408.34;1770393;81;20203;-65
2022/03/23 01:49:37;;;;;;;;;;;;;;;0.28;70.22;102401.27;1770335;81;20183;-65
2022/03/23 01:52:44;;;;;;;;;;;;;;;0.27;70.19;102398.64;1770570;81;20196;-63
2022/03/23 01:55:50;;;;;;;;;;;;;;;0.27;70.06;102398.64;1770307;81;20231;-63
2022/03/23 01:58:54;;;;;;;;;;;;;;;0.20;69.76;102399.81;1770528;81;20512;-62
2022/03/23 02:02:00;;;;;;;;;;;;;;;0.10;69.66;102388.53;1770457;81;20255;-63
2022/03/23 02:05:24;;;;;;;;;;;;;;;0.09;70.05;102389.48;1770564;81;20263;-63
2022/03/23 02:08:28;;;;;;;;;;;;;;;0.11;70.20;102391.65;1770431;81;20207;-63
2022/03/23 02:11:35;;;;;;;;;;;;;;;0.04;70.01;102388.78;1770396;81;20183;-63
2022/03/23 02:14:42;;;;;;;;;;;;;;;-0.03;69.98;102385.90;1770460;81;20200;-63
2022/03/23 02:17:53;;;;;;;;;;;;;;;-0.08;70.21;102389.27;1770175;80;20609;-63
2022/03/23 02:20:58;;;;;;;;;;;;;;;-0.09;70.48;102386.14;1775355;81;20200;-62
2022/03/23 02:24:05;;;;;;;;;;;;;;;-0.14;70.40;102378.72;1775041;81;20315;-63
2022/03/23 02:27:10;;;;;;;;;;;;;;;-0.19;70.46;102381.58;1751362;80;20215;-64
2022/03/23 02:30:20;;;;;;;;;;;;;;;-0.19;70.78;102381.58;1775666;81;20200;-64
2022/03/23 02:33:29;;;;;;;;;;;;;;;-0.21;70.71;102378.56;1759701;81;20227;-64
2022/03/23 02:36:35;;;;;;;;;;;;;;;-0.27;70.68;102378.80;1775320;81;20591;-63
2022/03/23 02:39:40;;;;;;;;;;;;;;;-0.29;70.79;102375.28;1774615;81;20187;-62
2022/03/23 02:42:46;;;;;;;;;;;;;;;-0.28;71.01;102368.95;1774878;81;20195;-62
2022/03/23 02:45:51;;;;;;;;;;;;;;;-0.25;71.12;102370.17;1757427;80;20219;-62
2022/03/23 02:48:57;;;;;;;;;;;;;;;-0.28;70.94;102374.33;1774862;81;20219;-64
2022/03/23 02:52:02;;;;;;;;;;;;;;;-0.35;70.88;102372.34;1775044;81;20248;-62
2022/03/23 03:02:23;;;;;;;;;;;;;;;-0.41;71.42;102378.41;1710167;83;20213;-62
2022/03/23 03:05:29;;;;;;;;;;;;;;;-0.40;71.53;102377.50;1776615;79;20541;-62
2022/03/23 03:08:45;;;;;;;;;;;;;;;-0.35;71.90;102372.83;1774150;80;20206;-62
2022/03/23 03:11:51;;;;;;;;;;;;;;;-0.33;71.86;102376.31;1774009;80;20245;-62
2022/03/23 03:14:57;;;;;;;;;;;;;;;-0.34;71.79;102370.54;1774122;80;20213;-63
2022/03/23 03:18:06;;;;;;;;;;;;;;;-0.37;71.66;102368.86;1773961;81;20233;-63
2022/03/23 03:21:15;;;;;;;;;;;;;;;-0.36;71.77;102368.36;1738537;82;20259;-63
2022/03/23 03:24:20;;;;;;;;;;;;;;;-0.36;71.76;102369.25;1738450;82;20200;-62
2022/03/23 03:27:27;;;;;;;;;;;;;;;-0.35;71.87;102369.66;1738573;82;20216;-63
2022/03/23 03:30:34;;;;;;;;;;;;;;;-0.37;71.77;102367.97;1738474;82;20204;-63
2022/03/23 03:33:39;;;;;;;;;;;;;;;-0.44;71.63;102363.28;1755195;81;20519;-63
2022/03/23 03:36:45;;;;;;;;;;;;;;;-0.43;71.95;102358.79;1770433;81;20184;-63
2022/03/23 03:39:50;;;;;;;;;;;;;;;-0.41;71.91;102362.27;1752988;81;20548;-63
2022/03/23 03:42:57;;;;;;;;;;;;;;;-0.39;71.95;102357.27;1770503;81;20227;-62
2022/03/23 03:46:06;;;;;;;;;;;;;;;-0.35;71.94;102353.50;1753060;81;20196;-63
2022/03/23 03:49:15;;;;;;;;;;;;;;;-0.32;71.76;102352.53;1770430;81;20547;-62
2022/03/23 03:52:19;;;;;;;;;;;;;;;-0.35;71.62;102346.78;1770451;81;20227;-62
2022/03/23 03:55:24;;;;;;;;;;;;;;;-0.36;71.40;102350.42;1770043;81;20564;-62
2022/03/23 03:58:30;;;;;;;;;;;;;;;-0.45;71.09;102360.20;1770595;81;20198;-62
2022/03/23 04:01:34;;;;;;;;;;;;;;;-0.48;71.26;102349.55;1770554;80;20532;-63
2022/03/23 04:04:39;;;;;;;;;;;;;;;-0.48;71.34;102344.17;1770402;81;20211;-63
2022/03/23 04:07:47;;;;;;;;;;;;;;;-0.49;71.26;102341.55;1770452;81;20199;-62
2022/03/23 04:10:53;;;;;;;;;;;;;;;-0.54;71.32;102352.94;1770026;81;20472;-62
2022/03/23 04:13:58;;;;;;;;;;;;;;;-0.55;71.44;102356.55;1769821;81;20220;-62
2022/03/23 04:17:03;;;;;;;;;;;;;;;-0.51;71.67;102350.13;1769906;81;20560;-63
2022/03/23 04:20:09;;;;;;;;;;;;;;;-0.46;71.64;102348.16;1774366;79;20194;-62
2022/03/23 04:23:14;;;;;;;;;;;;;;;-0.44;71.64;102348.48;1793782;80;20229;-63
2022/03/23 04:26:18;;;;;;;;;;;;;;;-0.37;71.71;102342.41;1794186;80;20534;-62
2022/03/23 04:29:24;;;;;;;;;;;;;;;-0.29;71.83;102343.88;1794444;80;20241;-62
2022/03/23 04:32:30;;;;;;;;;;;;;;;-0.18;72.07;102342.11;1794310;80;20266;-63
2022/03/23 04:35:36;;;;;;;;;;;;;;;0.00;72.37;102342.73;1794210;80;20217;-63
2022/03/23 04:38:42;;;;;;;;;;;;;;;0.17;72.36;102338.89;1794301;80;20534;-62
2022/03/23 04:41:48;;;;;;;;;;;;;;;0.33;72.24;102335.09;1794011;80;20199;-59
2022/03/23 04:44:54;;;;;;;;;;;;;;;0.40;71.90;102334.77;1794260;80;20220;-60
2022/03/23 04:47:59;;;;;;;;;;;;;;;0.48;71.68;102339.36;1794186;80;20225;-59
2022/03/23 04:51:06;;;;;;;;;;;;;;;0.60;71.67;102329.44;1793856;80;20257;-61
2022/03/23 04:54:12;;;;;;;;;;;;;;;0.73;71.62;102318.51;1794517;80;20554;-60
2022/03/23 04:57:22;;;;;;;;;;;;;;;0.87;71.41;102332.27;1794159;80;20252;-59
2022/03/23 05:00:30;;;;;;;;;;;;;;;0.99;71.15;102324.11;1794475;80;20218;-59
2022/03/23 05:03:37;;;;;;;;;;;;;;;1.11;70.91;102321.75;1794706;80;20210;-60
2022/03/23 05:06:42;;;;;;;;;;;;;;;1.23;70.63;102329.77;1794623;80;20581;-60
2022/03/23 05:09:52;;;;;;;;;;;;;;;1.30;70.17;102318.63;1794500;80;20206;-60
2022/03/23 05:12:55;;;;;;;;;;;;;;;1.40;69.93;102319.97;1794493;80;20237;-60
2022/03/23 05:16:00;;;;;;;;;;;;;;;1.49;69.41;102319.53;1794715;80;20198;-60
2022/03/23 05:19:07;;;;;;;;;;;;;;;1.60;69.15;102310.95;1794377;80;20190;-60
2022/03/23 05:22:15;;;;;;;;;;;;;;;1.74;69.03;102313.88;1794543;78;20277;-61
2022/03/23 05:25:21;;;;;;;;;;;;;;;1.90;68.81;102309.95;1794654;80;20187;-60
2022/03/23 05:28:26;;;;;;;;;;;;;;;2.04;68.56;102311.52;1794486;80;20194;-60
2022/03/23 05:31:31;;;;;;;;;;;;;;;2.18;68.27;102305.84;1794495;80;20255;-61
2022/03/23 05:34:38;;;;;;;;;;;;;;;2.32;67.87;102297.03;1794449;80;20229;-60
2022/03/23 05:37:42;;;;;;;;;;;;;;;2.47;67.47;102297.63;1794594;80;20182;-59
2022/03/23 05:40:42;;;;;;;;;;;;;;;2.64;66.75;102293.12;1794286;80;20194;-60
2022/03/23 05:43:47;;;;;;;;;;;;;;;2.82;65.99;102292.64;1794943;80;20182;-60
2022/03/23 05:46:52;;;;;;;;;;;;;;;2.99;65.17;102291.27;1795043;80;20545;-60
2022/03/23 05:49:58;;;;;;;;;;;;;;;3.19;64.40;102291.07;1794853;80;20531;-60
2022/03/23 05:53:09;;;;;;;;;;;;;;;3.37;63.48;102292.80;1763731;81;20529;-60
2022/03/23 05:56:14;;;;;;;;;;;;;;;3.55;62.68;102293.63;1776422;80;20178;-61
2022/03/23 05:59:19;;;;;;;;;;;;;;;3.71;61.96;102288.61;1773411;80;20217;-65
2022/03/23 06:02:27;;;;;;;;;;;;;;;3.88;61.39;102295.80;1787417;78;20207;-61
2022/03/23 06:05:33;;;;;;;;;;;;;;;4.03;61.13;102284.08;1794388;80;20253;-65
2022/03/23 06:08:41;;;;;;;;;;;;;;;4.17;60.94;102286.89;1788190;80;20521;-62
2022/03/23 06:11:48;;;;;;;;;;;;;;;4.31;60.68;102289.16;1762478;81;20250;-62
2022/03/23 06:14:53;;;;;;;;;;;;;;;4.46;60.42;102286.92;1762668;81;20553;-62
2022/03/23 06:17:59;;;;;;;;;;;;;;;4.60;60.21;102282.91;1762104;81;20251;-60
2022/03/23 06:21:09;;;;;;;;;;;;;;;4.75;59.89;102288.38;1762144;81;20576;-59
2022/03/23 06:24:13;;;;;;;;;;;;;;;4.88;59.55;102286.67;1759338;80;20200;-61
2022/03/23 06:27:17;;;;;;;;;;;;;;;5.02;59.27;102285.34;1761147;81;20212;-60
2022/03/23 06:30:24;;;;;;;;;;;;;;;5.15;58.94;102282.27;1761519;79;20208;-61
2022/03/23 06:33:31;;;;;;;;;;;;;;;5.28;58.70;102275.13;1792254;80;20202;-60
2022/03/23 06:36:37;;;;;;;;;;;;;;;5.44;58.47;102279.98;1786079;80;20208;-57
2022/03/23 06:39:42;;;;;;;;;;;;;;;5.59;58.32;102281.70;1762453;80;20212;-58
2022/03/23 06:42:47;;;;;;;;;;;;;;;5.72;58.20;102273.16;1762401;81;20216;-63
2022/03/23 06:45:52;;;;;;;;;;;;;;;5.87;57.90;102272.19;1757898;80;20546;-60
2022/03/23 06:48:58;;;;;;;;;;;;;;;6.01;57.58;102270.80;1794424;80;20214;-60
2022/03/23 06:52:03;;;;;;;;;;;;;;;6.13;57.22;102271.37;1794757;79;20198;-59
2022/03/23 06:55:09;;;;;;;;;;;;;;;6.27;56.92;102263.16;1794473;80;20279;-61
2022/03/23 06:58:15;;;;;;;;;;;;;;;6.40;56.10;102262.73;1794300;80;20198;-61
2022/03/23 07:01:20;;;;;;;;;;;;;;;6.50;55.67;102251.59;1794608;80;20190;-55
2022/03/23 07:04:27;;;;;;;;;;;;;;;6.64;55.14;102247.94;1794440;80;20206;-59
2022/03/23 07:07:31;;;;;;;;;;;;;;;6.80;53.81;102249.99;1794303;80;20174;-60
2022/03/23 07:10:38;;;;;;;;;;;;;;;6.93;52.84;102240.84;1774470;80;20188;-60
2022/03/23 07:13:44;;;;;;;;;;;;;;;7.06;52.30;102245.83;1762805;81;20212;-61
2022/03/23 07:16:48;;;;;;;;;;;;;;;7.21;51.67;102242.52;1762153;81;20212;-60
2022/03/23 07:19:53;;;;;;;;;;;;;;;7.34;51.11;102237.42;1762321;81;20200;-60
2022/03/23 07:22:59;;;;;;;;;;;;;;;7.48;50.70;102233.21;1762669;79;20208;-61
2022/03/23 07:26:09;;;;;;;;;;;;;;;7.63;50.21;102234.47;1775022;79;20265;-64
2022/03/23 07:29:15;;;;;;;;;;;;;;;7.76;49.85;102231.20;1775843;79;20277;-65
2022/03/23 07:32:21;;;;;;;;;;;;;;;7.89;49.25;102226.11;1785970;80;20253;-63
2022/03/23 07:35:28;;;;;;;;;;;;;;;8.03;48.62;102225.06;1789872;79;20279;-62
2022/03/23 07:38:36;;;;;;;;;;;;;;;8.17;47.89;102223.53;1766126;80;20233;-63
2022/03/23 07:41:44;;;;;;;;;;;;;;;8.31;47.31;102219.33;1776109;79;20235;-67
2022/03/23 07:44:49;;;;;;;;;;;;;;;8.45;47.01;102217.26;1769812;80;20234;-65
2022/03/23 07:47:54;;;;;;;;;;;;;;;8.60;46.40;102213.85;1779112;80;20216;-65
2022/03/23 07:50:58;;;;;;;;;;;;;;;8.73;45.96;102210.06;1761584;81;20240;-64
2022/03/23 07:54:04;;;;;;;;;;;;;;;8.88;45.60;102202.51;1768032;79;20203;-62
2022/03/23 07:57:08;;;;;;;;;;;;;;;9.03;45.07;102208.14;1788469;80;20214;-67
2022/03/23 08:00:17;;;;;;;;;;;;;;;9.15;44.61;102204.42;1776913;79;20279;-65
2022/03/23 08:03:23;;;;;;;;;;;;;;;9.26;43.89;102198.97;1793274;80;20229;-64
2022/03/23 08:06:28;;;;;;;;;;;;;;;9.34;43.63;102199.22;1793035;80;20241;-65
2022/03/23 08:09:32;;;;;;;;;;;;;;;9.44;43.44;102198.86;1793836;79;20680;-65
2022/03/23 08:12:38;;;;;;;;;;;;;;;9.53;43.53;102190.42;1761767;81;20277;-66
2022/03/23 08:15:47;;;;;;;;;;;;;;;9.61;43.50;102187.41;1778755;79;20243;-66
2022/03/23 08:18:56;;;;;;;;;;;;;;;9.71;43.72;102184.79;1766881;80;20216;-64
2022/03/23 08:22:00;;;;;;;;;;;;;;;9.83;43.70;102183.27;1763010;80;20204;-65
2022/03/23 08:25:04;;;;;;;;;;;;;;;9.94;43.75;102172.31;1770806;78;20218;-64
2022/03/23 08:28:09;;;;;;;;;;;;;;;10.04;43.71;102174.66;1774256;81;20203;-65
2022/03/23 08:31:13;;;;;;;;;;;;;;;10.12;43.39;102168.07;1779365;78;20548;-66
2022/03/23 08:34:22;;;;;;;;;;;;;;;10.23;43.51;102162.55;1798715;78;20272;-65
2022/03/23 08:37:26;;;;;;;;;;;;;;;10.33;43.44;102156.68;1794556;79;20213;-65
2022/03/23 08:40:32;;;;;;;;;;;;;;;10.44;43.32;102157.99;1796051;78;20585;-64
2022/03/23 08:43:36;;;;;;;;;;;;;;;10.53;43.00;102147.61;1803724;79;20250;-72
2022/03/23 08:46:43;;;;;;;;;;;;;;;10.62;42.91;102140.97;1769890;79;20219;-73
2022/03/23 08:49:52;;;;;;;;;;;;;;;10.72;42.99;102134.55;1788171;79;20213;-71
2022/03/23 08:53:00;;;;;;;;;;;;;;;10.82;42.77;102133.23;1773781;81;20215;-73
2022/03/23 08:56:08;;;;;;;;;;;;;;;10.89;42.88;102131.21;1772345;79;20207;-72
2022/03/23 08:59:15;;;;;;;;;;;;;;;10.96;42.79;102115.95;1773764;79;20215;-62
2022/03/23 09:02:19;;;;;;;;;;;;;;;11.06;42.78;102114.63;1784621;79;20210;-72
2022/03/23 09:05:27;;;;;;;;;;;;;;;11.13;42.36;102118.57;1790019;79;20329;-73
2022/03/23 09:08:33;;;;;;;;;;;;;;;11.21;42.51;102104.52;1796711;79;20578;-72
2022/03/23 09:11:45;;;;;;;;;;;;;;;11.33;42.39;102101.19;1806150;79;20237;-68
2022/03/23 09:14:55;;;;;;;;;;;;;;;11.42;41.79;102099.84;1806096;79;20205;-68
2022/03/23 09:18:08;;;;;;;;;;;;;;;11.50;41.53;102093.66;1804362;79;20576;-65
2022/03/23 09:21:14;;;;;;;;;;;;;;;11.56;41.28;102087.63;1793009;79;20281;-61
2022/03/23 09:24:19;;;;;;;;;;;;;;;11.62;41.03;102087.06;1804809;79;20209;-61
2022/03/23 09:27:27;;;;;;;;;;;;;;;11.70;40.83;102080.40;1798043;79;20272;-61
2022/03/23 09:30:31;;;;;;;;;;;;;;;11.79;40.54;102076.80;1770182;81;20488;-59
2022/03/23 09:33:36;;;;;;;;;;;;;;;11.88;40.24;102073.19;1772135;80;20319;-60
2022/03/23 09:40:05;;;;;;;;;;;;;;;12.07;39.75;102062.22;1776815;79;20257;-62
2022/03/23 09:43:15;;;;;;;;;;;;;;;12.18;39.54;102060.69;1781119;79;20202;-60
2022/03/23 09:46:22;;;;;;;;;;;;;;;12.28;39.16;102054.70;1804694;79;20624;-59
2022/03/23 09:49:30;;;;;;;;;;;;;;;12.39;39.01;102064.15;1788401;79;20277;-60
2022/03/23 09:52:35;;;;;;;;;;;;;;;12.46;38.69;102058.94;1788313;79;20245;-59
2022/03/23 09:55:42;;;;;;;;;;;;;;;12.52;38.55;102056.47;1801030;79;20276;-60
2022/03/23 09:58:48;;;;;;;;;;;;;;;12.61;38.47;102043.71;1804718;79;20335;-62
2022/03/23 10:02:05;;;;;;;;;;;;;;;12.71;38.51;102041.81;1799297;79;20284;-65
2022/03/23 10:05:32;;;;;;;;;;;;;;;12.83;38.19;102038.73;1804399;78;20273;-66
2022/03/23 10:09:14;;;;;;;;;;;;;;;12.92;37.67;102025.45;1772424;81;20332;-63
2022/03/23 10:12:38;;;;;;;;;;;;;;;13.05;37.35;102026.01;1773366;81;20211;-64
2022/03/23 10:16:23;;;;;;;;;;;;;;;13.15;37.05;102015.84;1774353;81;20203;-63
2022/03/23 10:19:28;;;;;;;;;;;;;;;13.26;37.01;102005.12;1774335;79;20576;-66
2022/03/23 10:22:34;;;;;;;;;;;;;;;13.38;36.70;102002.55;1774579;81;20251;-68
2022/03/23 10:25:44;;;;;;;;;;;;;;;13.47;36.40;101997.48;1773437;81;20603;-67
2022/03/23 10:28:51;;;;;;;;;;;;;;;13.59;36.27;101987.96;1772234;81;20203;-67
2022/03/23 10:32:10;;;;;;;;;;;;;;;13.72;35.81;101984.82;1773713;81;20199;-69
2022/03/23 10:35:21;;;;;;;;;;;;;;;13.84;36.28;101982.20;1776476;79;20216;-69
2022/03/23 10:38:30;;;;;;;;;;;;;;;13.98;35.75;101977.00;1792719;79;20207;-68
2022/03/23 10:41:44;;;;;;;;;;;;;;;14.09;35.53;101971.75;1796996;79;20208;-68
2022/03/23 10:44:51;;;;;;;;;;;;;;;14.16;34.44;101958.55;1800013;79;20783;-68
2022/03/23 10:47:57;;;;;;;;;;;;;;;14.27;34.66;101954.72;1796431;79;20202;-64
2022/03/23 10:51:04;;;;;;;;;;;;;;;14.41;34.84;101946.70;1803496;79;20343;-68
2022/03/23 10:54:28;;;;;;;;;;;;;;;14.55;34.70;101942.49;1804382;79;20347;-68
2022/03/23 10:57:55;;;;;;;;;;;;;;;14.67;34.58;101929.64;1796764;79;20482;-69
2022/03/23 11:01:07;;;;;;;;;;;;;;;14.83;34.37;101935.23;1805287;79;20209;-68
2022/03/23 11:04:15;;;;;;;;;;;;;;;14.95;34.25;101927.00;1779757;79;20235;-67
2022/03/23 11:07:38;;;;;;;;;;;;;;;15.11;34.29;101930.31;1796045;79;20618;-61
2022/03/23 11:17:37;;;;;;;;;;;;;;;15.63;32.83;101903.39;1804376;79;20515;-71
2022/03/23 11:20:56;;;;;;;;;;;;;;;15.80;32.64;101896.83;1804645;78;20205;-70
2022/03/23 11:24:03;;;;;;;;;;;;;;;15.93;32.46;101891.15;1805896;79;20197;-73
2022/03/23 11:27:16;;;;;;;;;;;;;;;16.04;32.45;101882.50;1804716;79;20209;-68
2022/03/23 11:30:20;;;;;;;;;;;;;;;16.23;32.00;101869.69;1803488;77;20216;-67
2022/03/23 11:33:26;;;;;;;;;;;;;;;16.44;32.55;101866.34;1804383;79;20205;-61
2022/03/23 11:36:35;;;;;;;;;;;;;;;16.64;31.90;101870.44;1805720;78;20581;-63
2022/03/23 11:39:44;;;;;;;;;;;;;;;16.74;31.50;101861.94;1805911;78;20198;-63
2022/03/23 11:42:52;;;;;;;;;;;;;;;16.87;31.64;101852.54;1805907;79;20205;-69
2022/03/23 11:46:00;;;;;;;;;;;;;;;17.02;31.22;101843.79;1805409;78;20229;-62
2022/03/23 11:49:22;;;;;;;;;;;;;;;17.11;30.82;101845.48;1784854;79;20282;-62
2022/03/23 11:52:46;;;;;;;;;;;;;;;17.19;30.90;101835.72;1795230;79;20549;-64
2022/03/23 11:55:56;;;;;;;;;;;;;;;17.30;30.26;101833.94;1777202;79;20267;-63
2022/03/23 11:59:02;;;;;;;;;;;;;;;17.35;29.95;101825.41;1785543;79;20236;-63
2022/03/23 12:02:10;;;;;;;;;;;;;;;17.43;29.45;101819.80;1798106;79;20281;-64
2022/03/23 12:05:40;;;;;;;;;;;;;;;17.48;29.35;101822.05;1802292;79;20629;-63
2022/03/23 12:08:54;;;;;;;;;;;;;;;17.52;29.23;101817.88;1799938;79;20218;-63
2022/03/23 12:12:00;;;;;;;;;;;;;;;17.60;29.33;101808.95;1788989;79;20262;-63
2022/03/23 12:15:33;;;;;;;;;;;;;;;17.70;29.37;101805.92;1797446;79;20538;-64
2022/03/23 12:18:47;;;;;;;;;;;;;;;17.76;28.92;101804.65;1785607;79;20573;-63
2022/03/23 12:22:09;;;;;;;;;;;;;;;17.76;28.76;101799.63;1800414;79;20255;-59
2022/03/23 12:25:38;;;;;;;;;;;;;;;17.80;28.74;101794.93;1800021;79;20195;-62
2022/03/23 12:28:55;;;;;;;;;;;;;;;17.87;28.60;101790.85;1791842;79;20222;-61
2022/03/23 12:32:29;;;;;;;;;;;;;;;17.93;28.31;101786.48;1795245;79;20848;-62
2022/03/23 12:35:38;;;;;;;;;;;;;;;17.93;28.32;101781.81;1744192;82;20196;-63
2022/03/23 12:38:48;;;;;;;;;;;;;;;17.90;27.99;101777.48;1741609;81;20214;-62
2022/03/23 12:41:57;;;;;;;;;;;;;;;17.87;28.00;101771.45;1733802;81;20575;-63
2022/03/23 12:45:25;;;;;;;;;;;;;;;17.77;27.82;101771.73;1739962;81;20208;-64
2022/03/23 12:58:48;;;;;;;;;;;;;;;17.90;28.38;101764.18;1752641;81;20526;-63
2022/03/23 13:02:24;;;;;;;;;;;;;;;17.97;28.08;101745.72;1766832;81;20212;-63
2022/03/23 13:05:28;;;;;;;;;;;;;;;18.01;28.04;101748.98;1764532;81;20480;-64
2022/03/23 13:08:47;;;;;;;;;;;;;;;17.94;27.94;101743.34;1759453;80;20584;-63
2022/03/23 13:11:51;;;;;;;;;;;;;;;17.83;28.08;101740.52;1763412;81;20556;-62
2022/03/23 13:14:58;;;;;;;;;;;;;;;17.91;28.58;101738.17;1740906;81;20206;-62
2022/03/23 13:18:07;;;;;;;;;;;;;;;17.97;28.33;101724.94;1743397;81;20222;-62
2022/03/23 13:21:12;;;;;;;;;;;;;;;18.03;28.29;101718.63;1736967;81;20276;-65
2022/03/23 13:24:19;;;;;;;;;;;;;;;18.12;28.29;101720.78;1737700;81;20214;-63
2022/03/23 13:27:25;;;;;;;;;;;;;;;18.18;28.17;101710.30;1750685;81;20284;-62
2022/03/23 13:30:35;;;;;;;;;;;;;;;18.21;28.56;101709.39;1753933;81;20804;-62
2022/03/23 13:33:55;;;;;;;;;;;;;;;18.27;28.31;101705.84;1728593;81;20225;-61
2022/03/23 13:37:00;;;;;;;;;;;;;;;18.36;28.27;101703.28;1799497;79;20260;-63
2022/03/23 13:40:08;;;;;;;;;;;;;;;18.43;27.97;101694.57;1773301;79;20207;-62
2022/03/23 13:43:22;;;;;;;;;;;;;;;18.50;27.72;101694.65;1784932;79;20240;-65
2022/03/23 13:46:32;;;;;;;;;;;;;;;18.54;27.62;101689.89;1787842;79;20293;-63
2022/03/23 13:49:39;;;;;;;;;;;;;;;18.59;27.88;101680.47;1805234;79;20220;-60
2022/03/23 13:52:43;;;;;;;;;;;;;;;18.65;27.85;101681.06;1805566;79;20205;-62
2022/03/23 13:55:53;;;;;;;;;;;;;;;18.72;27.90;101670.04;1803014;78;20193;-62
2022/03/23 13:58:58;;;;;;;;;;;;;;;18.78;27.74;101673.41;1794227;79;20633;-60
2022/03/23 14:02:06;;;;;;;;;;;;;;;18.81;27.56;101669.71;1763336;79;20208;-61
2022/03/23 14:05:16;;;;;;;;;;;;;;;18.87;27.61;101664.75;1798978;79;20241;-61
2022/03/23 14:08:23;;;;;;;;;;;;;;;18.90;27.23;101657.41;1805431;79;20542;-63
2022/03/23 14:14:56;;;;;;;;;;;;;;;18.96;27.57;101652.44;1800072;79;20213;-64
2022/03/23 14:18:06;;;;;;;;;;;;;;;19.01;27.32;101650.48;1786595;79;20573;-65
2022/03/23 14:21:13;;;;;;;;;;;;;;;18.98;27.17;101646.17;1800504;79;20213;-67
2022/03/23 14:24:21;;;;;;;;;;;;;;;18.96;27.54;101647.44;1786305;79;20201;-66
2022/03/23 14:27:45;;;;;;;;;;;;;;;18.94;27.47;101642.09;1772314;80;20218;-69
2022/03/23 14:30:50;;;;;;;;;;;;;;;18.92;27.73;101641.42;1795861;77;20217;-65
2022/03/23 14:34:00;;;;;;;;;;;;;;;18.89;27.63;101630.73;1784905;79;20209;-67
2022/03/23 14:37:16;;;;;;;;;;;;;;;18.88;27.53;101633.19;1801704;79;20227;-69
2022/03/23 14:40:36;;;;;;;;;;;;;;;18.76;27.60;101625.05;1804738;79;20217;-68
2022/03/23 14:43:44;;;;;;;;;;;;;;;18.60;27.83;101616.98;1796256;79;20241;-64
2022/03/23 14:46:50;;;;;;;;;;;;;;;18.48;28.04;101621.35;1768351;79;20608;-67
2022/03/23 14:50:00;;;;;;;;;;;;;;;18.48;27.91;101610.26;1764265;80;20248;-66
2022/03/23 14:53:05;;;;;;;;;;;;;;;18.46;27.97;101603.17;1789685;79;20210;-70
2022/03/23 14:56:11;;;;;;;;;;;;;;;18.46;28.10;101606.81;1800330;79;20554;-71
2022/03/23 14:59:19;;;;;;;;;;;;;;;18.46;28.25;101604.56;1797779;78;20550;-63
2022/03/23 15:02:25;;;;;;;;;;;;;;;18.59;28.44;101602.80;1791664;79;20197;-61
2022/03/23 15:15:43;;;;;;;;;;;;;;;17.99;28.84;101585.67;1771592;81;20674;-59
2022/03/23 15:18:49;;;;;;;;;;;;;;;18.00;28.71;101581.83;1772438;81;20214;-61
2022/03/23 15:22:10;;;;;;;;;;;;;;;18.01;28.86;101584.95;1772766;79;20622;-58
2022/03/23 15:25:09;;;;;;;;;;;;;;;17.92;28.96;101580.56;1772542;79;20208;-59
2022/03/23 15:28:14;;;;;;;;;;;;;;;17.76;29.14;101577.48;1773399;81;20600;-60
2022/03/23 15:31:21;;;;;;;;;;;;;;;17.58;29.32;101570.64;1774198;79;20623;-59
2022/03/23 15:34:26;;;;;;;;;;;;;;;17.34;29.48;101577.31;1775035;79;20282;-60
2022/03/23 15:37:31;;;;;;;;;;;;;;;17.08;29.93;101573.26;1786705;79;20221;-59
2022/03/23 15:40:39;;;;;;;;;;;;;;;16.95;30.22;101573.07;1803834;79;20398;-59
2022/03/23 15:43:44;;;;;;;;;;;;;;;16.77;30.47;101572.55;1804107;79;20244;-60
2022/03/23 15:46:52;;;;;;;;;;;;;;;16.54;30.77;101574.48;1774366;81;20694;-59
2022/03/23 15:50:01;;;;;;;;;;;;;;;16.21;31.23;101573.31;1774761;81;20208;-61
2022/03/23 15:53:08;;;;;;;;;;;;;;;15.89;31.69;101576.27;1775307;79;20568;-59
2022/03/23 15:56:13;;;;;;;;;;;;;;;15.60;32.12;101571.92;1792209;79;20585;-59
2022/03/23 15:59:21;;;;;;;;;;;;;;;15.33;32.61;101571.50;1796476;79;20226;-59
2022/03/23 16:02:35;;;;;;;;;;;;;;;15.04;33.20;101569.34;1791219;79;20292;-59
2022/03/23 16:05:39;;;;;;;;;;;;;;;14.75;33.84;101566.27;1775231;81;20204;-59
2022/03/23 16:08:44;;;;;;;;;;;;;;;14.44;34.51;101569.41;1775166;81;20506;-59
2022/03/23 16:11:53;;;;;;;;;;;;;;;14.17;35.10;101571.06;1775186;81;20246;-59
2022/03/23 16:14:57;;;;;;;;;;;;;;;13.92;35.47;101567.92;1774440;81;20207;-61
2022/03/23 16:18:04;;;;;;;;;;;;;;;13.71;35.99;101563.38;1779568;79;20206;-59
2022/03/23 16:21:11;;;;;;;;;;;;;;;13.50;36.46;101568.83;1794770;79;20260;-59
2022/03/23 16:24:17;;;;;;;;;;;;;;;13.31;36.89;101563.59;1801611;79;20613;-59
2022/03/23 16:27:22;;;;;;;;;;;;;;;13.12;37.28;101563.83;1805601;79;20529;-60
2022/03/23 16:30:35;;;;;;;;;;;;;;;12.94;37.81;101565.73;1805315;79;20245;-59
2022/03/23 16:33:42;;;;;;;;;;;;;;;12.72;38.29;101565.41;1805120;79;20217;-59
2022/03/23 16:36:57;;;;;;;;;;;;;;;12.51;39.15;101569.88;1805634;79;20284;-60
2022/03/23 16:40:07;;;;;;;;;;;;;;;12.25;39.52;101569.48;1806193;79;20206;-64
2022/03/23 16:43:14;;;;;;;;;;;;;;;11.99;39.98;101570.77;1805729;79;20557;-65
2022/03/23 16:46:22;;;;;;;;;;;;;;;11.76;40.32;101566.77;1805432;79;20205;-63
2022/03/23 16:49:30;;;;;;;;;;;;;;;11.54;41.14;101568.53;1805561;79;20612;-63
2022/03/23 16:52:35;;;;;;;;;;;;;;;11.34;41.77;101561.41;1806010;79;20248;-64